createdAt,value
2017-01-30T00:00:20.323Z,4.17
2017-01-30T00:01:19.799Z,4.13
2017-01-30T00:02:20.271Z,4.1
2017-01-30T00:03:20.243Z,4.1
2017-01-30T00:04:19.825Z,4.13
2017-01-30T00:05:20.209Z,4.1
2017-01-30T00:06:19.770Z,4.17
2017-01-30T00:07:19.745Z,4.17
2017-01-30T00:08:20.117Z,4.24
2017-01-30T00:09:20.091Z,4.17
2017-01-30T00:10:19.664Z,4.26
2017-01-30T00:11:20.093Z,4.31
2017-01-30T00:12:19.623Z,4.29
2017-01-30T00:13:19.586Z,4.24
2017-01-30T00:14:19.569Z,4.26
2017-01-30T00:15:19.534Z,4.29
2017-01-30T00:16:19.910Z,4.31
2017-01-30T00:17:19.490Z,4.29
2017-01-30T00:18:19.889Z,4.28
2017-01-30T00:19:19.839Z,4.36
2017-01-30T00:20:19.808Z,4.26
2017-01-30T00:21:19.394Z,4.31
2017-01-30T00:22:19.764Z,4.34
2017-01-30T00:23:19.388Z,4.35
2017-01-30T00:24:19.710Z,4.29
2017-01-30T00:25:19.680Z,4.31
2017-01-30T00:26:19.659Z,4.32
2017-01-30T00:27:19.633Z,4.28
2017-01-30T00:28:19.657Z,4.32
2017-01-30T00:29:19.577Z,4.36
2017-01-30T00:30:19.148Z,4.32
2017-01-30T00:31:19.536Z,4.34
2017-01-30T00:32:19.512Z,4.35
2017-01-30T00:33:19.082Z,4.35
2017-01-30T00:34:19.452Z,4.29
2017-01-30T00:35:19.074Z,4.35
2017-01-30T00:36:19.402Z,4.34
2017-01-30T00:37:19.379Z,4.34
2017-01-30T00:38:19.360Z,4.28
2017-01-30T00:39:19.328Z,4.34
2017-01-30T00:40:19.351Z,4.35
2017-01-30T00:41:19.280Z,4.32
2017-01-30T00:42:19.244Z,4.35
2017-01-30T00:43:19.220Z,4.34
2017-01-30T00:44:19.209Z,4.34
2017-01-30T00:45:19.186Z,4.31
2017-01-30T00:46:18.760Z,4.36
2017-01-30T00:47:18.725Z,4.31
2017-01-30T00:48:18.695Z,4.36
2017-01-30T00:49:19.080Z,4.32
2017-01-30T00:50:19.047Z,4.29
2017-01-30T00:51:19.068Z,4.36
2017-01-30T00:52:18.998Z,4.32
2017-01-30T00:53:18.661Z,4.32
2017-01-30T00:54:18.996Z,4.35
2017-01-30T00:55:18.523Z,4.32
2017-01-30T00:56:18.894Z,4.31
2017-01-30T00:57:18.868Z,4.36
2017-01-30T00:58:18.446Z,4.32
2017-01-30T00:59:18.412Z,4.32
2017-01-30T01:00:18.797Z,4.36
2017-01-30T01:01:18.368Z,4.29
2017-01-30T01:02:18.740Z,4.35
2017-01-30T01:03:18.737Z,4.29
2017-01-30T01:04:18.691Z,4.36
2017-01-30T01:05:19.127Z,4.32
2017-01-30T01:06:18.638Z,4.29
2017-01-30T01:07:18.623Z,4.32
2017-01-30T01:08:18.583Z,4.31
2017-01-30T01:09:18.176Z,4.34
2017-01-30T01:10:17.737Z,4.32
2017-01-30T01:11:18.112Z,4.34
2017-01-30T01:12:18.095Z,4.34
2017-01-30T01:13:18.463Z,4.34
2017-01-30T01:14:18.440Z,4.32
2017-01-30T01:15:18.061Z,4.38
2017-01-30T01:16:17.989Z,4.34
2017-01-30T01:17:18.364Z,4.31
2017-01-30T01:18:18.332Z,4.35
2017-01-30T01:19:17.912Z,4.34
2017-01-30T01:20:18.289Z,4.25
2017-01-30T01:21:18.345Z,4.29
2017-01-30T01:22:18.245Z,4.29
2017-01-30T01:23:17.862Z,4.24
2017-01-30T01:24:18.283Z,4.25
2017-01-30T01:25:17.760Z,4.29
2017-01-30T01:26:18.139Z,4.25
2017-01-30T01:27:17.707Z,4.26
2017-01-30T01:28:17.740Z,4.26
2017-01-30T01:29:17.665Z,4.32
2017-01-30T01:30:18.039Z,4.36
2017-01-30T01:31:18.055Z,4.56
2017-01-30T01:32:17.631Z,4.53
2017-01-30T01:33:17.967Z,4.64
2017-01-30T01:34:17.930Z,4.75
2017-01-30T01:35:17.554Z,4.88
2017-01-30T01:36:17.884Z,4.99
2017-01-30T01:37:17.467Z,5.02
2017-01-30T01:38:17.830Z,5.05
2017-01-30T01:39:17.804Z,5.08
2017-01-30T01:40:17.430Z,5.04
2017-01-30T01:41:17.379Z,5.02
2017-01-30T01:42:17.793Z,4.96
2017-01-30T01:43:17.711Z,4.94
2017-01-30T01:44:17.344Z,4.9
2017-01-30T01:45:17.713Z,4.86
2017-01-30T01:46:17.631Z,4.87
2017-01-30T01:47:17.213Z,4.93
2017-01-30T01:48:17.229Z,5.01
2017-01-30T01:49:17.554Z,4.97
2017-01-30T01:50:17.536Z,4.93
2017-01-30T01:51:17.506Z,4.94
2017-01-30T01:52:17.478Z,4.87
2017-01-30T01:53:17.467Z,4.83
2017-01-30T01:54:17.034Z,4.93
2017-01-30T01:55:17.406Z,4.94
2017-01-30T01:56:16.989Z,4.93
2017-01-30T01:57:17.359Z,4.91
2017-01-30T01:58:17.335Z,4.94
2017-01-30T01:59:17.309Z,4.96
2017-01-30T02:00:17.282Z,4.88
2017-01-30T02:01:16.864Z,4.9
2017-01-30T02:02:17.236Z,4.86
2017-01-30T02:03:17.206Z,4.72
2017-01-30T02:04:17.177Z,4.64
2017-01-30T02:05:17.144Z,4.59
2017-01-30T02:06:17.335Z,4.54
2017-01-30T02:07:16.706Z,4.62
2017-01-30T02:08:17.128Z,4.51
2017-01-30T02:09:17.057Z,4.64
2017-01-30T02:10:17.037Z,4.51
2017-01-30T02:11:16.603Z,4.49
2017-01-30T02:12:16.977Z,4.47
2017-01-30T02:13:16.956Z,4.39
2017-01-30T02:14:16.525Z,4.43
2017-01-30T02:15:16.555Z,4.36
2017-01-30T02:16:16.884Z,4.34
2017-01-30T02:17:16.948Z,4.36
2017-01-30T02:18:16.833Z,4.32
2017-01-30T02:19:16.801Z,4.35
2017-01-30T02:20:16.780Z,4.36
2017-01-30T02:21:16.752Z,4.34
2017-01-30T02:22:16.329Z,4.29
2017-01-30T02:23:16.699Z,4.28
2017-01-30T02:24:16.291Z,4.29
2017-01-30T02:25:16.695Z,4.28
2017-01-30T02:26:16.627Z,4.25
2017-01-30T02:27:16.202Z,4.26
2017-01-30T02:28:16.178Z,4.28
2017-01-30T02:29:16.152Z,4.18
2017-01-30T02:30:16.527Z,4.28
2017-01-30T02:31:16.524Z,4.16
2017-01-30T02:32:16.474Z,4.17
2017-01-30T02:33:16.059Z,4.21
2017-01-30T02:34:16.027Z,4.2
2017-01-30T02:35:16.395Z,4.17
2017-01-30T02:36:16.371Z,4.17
2017-01-30T02:37:16.343Z,4.16
2017-01-30T02:38:15.922Z,4.14
2017-01-30T02:39:16.294Z,4.13
2017-01-30T02:40:16.278Z,4.13
2017-01-30T02:41:16.242Z,4.1
2017-01-30T02:42:16.218Z,4.07
2017-01-30T02:43:15.845Z,4.04
2017-01-30T02:44:16.165Z,4.02
2017-01-30T02:45:16.138Z,4.04
2017-01-30T02:46:15.723Z,4
2017-01-30T02:47:16.100Z,4
2017-01-30T02:48:16.062Z,4.02
2017-01-30T02:49:15.643Z,4.06
2017-01-30T02:50:16.017Z,4.04
2017-01-30T02:51:15.794Z,4.04
2017-01-30T02:52:15.565Z,4.07
2017-01-30T02:53:15.934Z,4.07
2017-01-30T02:54:15.911Z,4.02
2017-01-30T02:55:15.883Z,4.07
2017-01-30T02:56:15.861Z,4.04
2017-01-30T02:57:16.041Z,4.02
2017-01-30T02:58:15.866Z,3.99
2017-01-30T02:59:15.845Z,4.13
2017-01-30T03:00:15.808Z,4.17
2017-01-30T03:01:15.740Z,4.16
2017-01-30T03:02:15.707Z,4.13
2017-01-30T03:03:15.687Z,4.14
2017-01-30T03:04:15.650Z,4.13
2017-01-30T03:05:15.237Z,4.13
2017-01-30T03:06:15.605Z,4.16
2017-01-30T03:07:15.591Z,4.2
2017-01-30T03:08:15.602Z,4.21
2017-01-30T03:09:15.133Z,4.16
2017-01-30T03:10:15.104Z,4.21
2017-01-30T03:11:15.084Z,4.29
2017-01-30T03:12:15.453Z,4.32
2017-01-30T03:13:15.032Z,4.31
2017-01-30T03:14:15.402Z,4.36
2017-01-30T03:15:14.982Z,4.32
2017-01-30T03:16:15.356Z,4.35
2017-01-30T03:17:14.925Z,4.35
2017-01-30T03:18:15.296Z,4.35
2017-01-30T03:19:15.272Z,4.34
2017-01-30T03:20:15.250Z,4.36
2017-01-30T03:21:15.278Z,4.43
2017-01-30T03:22:15.197Z,4.36
2017-01-30T03:23:15.695Z,4.35
2017-01-30T03:24:15.146Z,4.38
2017-01-30T03:25:14.723Z,4.36
2017-01-30T03:26:14.753Z,4.46
2017-01-30T03:27:14.670Z,4.44
2017-01-30T03:28:15.048Z,4.47
2017-01-30T03:29:15.027Z,4.49
2017-01-30T03:30:29.472Z,4.46
2017-01-30T03:31:15.016Z,4.51
2017-01-30T03:32:14.944Z,4.54
2017-01-30T03:33:14.924Z,4.59
2017-01-30T03:34:14.909Z,4.53
2017-01-30T03:35:14.464Z,4.5
2017-01-30T03:36:14.842Z,4.59
2017-01-30T03:37:14.823Z,4.59
2017-01-30T03:38:14.821Z,4.53
2017-01-30T03:39:14.362Z,4.53
2017-01-30T03:40:14.946Z,4.59
2017-01-30T03:41:14.731Z,4.53
2017-01-30T03:42:14.686Z,4.64
2017-01-30T03:43:14.657Z,4.51
2017-01-30T03:44:14.646Z,4.56
2017-01-30T03:45:14.234Z,4.49
2017-01-30T03:46:14.589Z,4.53
2017-01-30T03:47:14.159Z,4.49
2017-01-30T03:48:14.535Z,4.54
2017-01-30T03:49:14.168Z,4.49
2017-01-30T03:50:14.501Z,4.59
2017-01-30T03:51:14.462Z,4.59
2017-01-30T03:52:14.431Z,4.47
2017-01-30T03:53:14.404Z,4.61
2017-01-30T03:54:14.406Z,4.57
2017-01-30T03:55:14.361Z,4.64
2017-01-30T03:56:14.343Z,4.59
2017-01-30T03:57:14.334Z,4.49
2017-01-30T03:58:13.876Z,4.61
2017-01-30T03:59:13.906Z,4.5
2017-01-30T04:00:14.234Z,4.62
2017-01-30T04:01:14.205Z,4.61
2017-01-30T04:02:14.179Z,4.56
2017-01-30T04:03:13.763Z,4.59
2017-01-30T04:04:14.127Z,4.56
2017-01-30T04:05:14.101Z,4.54
2017-01-30T04:06:14.084Z,4.67
2017-01-30T04:07:14.051Z,4.54
2017-01-30T04:08:14.028Z,4.62
2017-01-30T04:09:14.000Z,4.62
2017-01-30T04:10:13.573Z,4.65
2017-01-30T04:11:13.961Z,4.74
2017-01-30T04:12:13.923Z,4.71
2017-01-30T04:13:13.504Z,4.69
2017-01-30T04:14:13.472Z,4.68
2017-01-30T04:15:13.451Z,4.75
2017-01-30T04:16:13.823Z,4.74
2017-01-30T04:17:13.791Z,4.75
2017-01-30T04:18:13.379Z,4.86
2017-01-30T04:19:13.750Z,4.87
2017-01-30T04:20:13.720Z,4.86
2017-01-30T04:21:13.998Z,4.93
2017-01-30T04:22:13.268Z,4.87
2017-01-30T04:23:13.641Z,4.96
2017-01-30T04:24:13.621Z,4.94
2017-01-30T04:25:13.617Z,4.88
2017-01-30T04:26:13.172Z,4.96
2017-01-30T04:27:13.541Z,4.99
2017-01-30T04:28:13.116Z,4.99
2017-01-30T04:29:13.940Z,4.91
2017-01-30T04:30:13.070Z,4.93
2017-01-30T04:31:13.442Z,4.96
2017-01-30T04:32:13.417Z,4.99
2017-01-30T04:33:13.441Z,4.99
2017-01-30T04:34:13.368Z,4.91
2017-01-30T04:35:13.347Z,4.93
2017-01-30T04:36:13.340Z,4.96
2017-01-30T04:37:12.890Z,4.91
2017-01-30T04:38:13.262Z,5.01
2017-01-30T04:39:13.241Z,4.93
2017-01-30T04:40:12.819Z,4.91
2017-01-30T04:41:13.188Z,4.91
2017-01-30T04:42:12.766Z,4.99
2017-01-30T04:43:13.135Z,4.94
2017-01-30T04:44:13.110Z,4.96
2017-01-30T04:45:13.082Z,4.94
2017-01-30T04:46:12.656Z,4.91
2017-01-30T04:47:13.038Z,4.9
2017-01-30T04:48:12.705Z,4.93
2017-01-30T04:49:12.992Z,4.94
2017-01-30T04:50:12.962Z,4.91
2017-01-30T04:51:12.537Z,4.9
2017-01-30T04:52:12.900Z,4.93
2017-01-30T04:53:12.486Z,4.9
2017-01-30T04:54:12.457Z,4.87
2017-01-30T04:55:12.435Z,4.83
2017-01-30T04:56:12.811Z,4.87
2017-01-30T04:57:12.780Z,4.87
2017-01-30T04:58:12.762Z,4.88
2017-01-30T04:59:12.336Z,4.84
2017-01-30T05:00:12.758Z,4.8
2017-01-30T05:01:12.289Z,4.74
2017-01-30T05:02:12.655Z,4.74
2017-01-30T05:03:12.638Z,4.8
2017-01-30T05:04:12.212Z,4.71
2017-01-30T05:05:12.681Z,4.71
2017-01-30T05:06:12.559Z,4.67
2017-01-30T05:07:12.536Z,4.68
2017-01-30T05:08:12.505Z,4.65
2017-01-30T05:09:12.483Z,4.74
2017-01-30T05:10:12.504Z,4.62
2017-01-30T05:11:12.034Z,4.62
2017-01-30T05:12:12.455Z,4.64
2017-01-30T05:13:11.974Z,4.71
2017-01-30T05:14:11.951Z,4.68
2017-01-30T05:15:11.928Z,4.62
2017-01-30T05:16:11.905Z,4.61
2017-01-30T05:17:12.285Z,4.68
2017-01-30T05:18:12.249Z,4.68
2017-01-30T05:19:11.829Z,4.62
2017-01-30T05:20:12.198Z,4.56
2017-01-30T05:21:12.188Z,4.59
2017-01-30T05:22:12.194Z,4.65
2017-01-30T05:23:12.127Z,4.62
2017-01-30T05:24:12.099Z,4.59
2017-01-30T05:25:11.675Z,4.67
2017-01-30T05:26:12.096Z,4.64
2017-01-30T05:27:12.025Z,4.62
2017-01-30T05:28:11.999Z,4.65
2017-01-30T05:29:11.981Z,4.59
2017-01-30T05:30:12.001Z,4.72
2017-01-30T05:31:11.921Z,4.74
2017-01-30T05:32:12.105Z,4.68
2017-01-30T05:33:11.073Z,4.68
2017-01-30T05:34:11.848Z,4.72
2017-01-30T05:35:11.824Z,4.72
2017-01-30T05:36:11.413Z,4.74
2017-01-30T05:37:11.366Z,4.8
2017-01-30T05:38:11.737Z,4.79
2017-01-30T05:39:11.327Z,4.84
2017-01-30T05:40:11.294Z,4.77
2017-01-30T05:41:11.672Z,4.84
2017-01-30T05:42:11.241Z,4.87
2017-01-30T05:43:11.618Z,4.87
2017-01-30T05:44:11.194Z,4.87
2017-01-30T05:45:11.616Z,4.86
2017-01-30T05:46:11.539Z,4.86
2017-01-30T05:47:11.548Z,4.86
2017-01-30T05:48:11.086Z,4.9
2017-01-30T05:49:11.463Z,4.93
2017-01-30T05:50:10.942Z,4.84
2017-01-30T05:51:11.427Z,4.94
2017-01-30T05:52:11.588Z,4.97
2017-01-30T05:53:10.968Z,4.97
2017-01-30T05:54:10.942Z,4.97
2017-01-30T05:55:11.311Z,4.99
2017-01-30T05:56:11.288Z,4.97
2017-01-30T05:57:11.263Z,4.93
2017-01-30T05:58:11.234Z,5.02
2017-01-30T05:59:11.215Z,5.02
2017-01-30T06:00:11.198Z,4.97
2017-01-30T06:01:11.165Z,5.04
2017-01-30T06:02:11.138Z,5.05
2017-01-30T06:03:10.710Z,4.99
2017-01-30T06:04:10.690Z,5.09
2017-01-30T06:05:10.667Z,5.01
2017-01-30T06:06:11.050Z,5.06
2017-01-30T06:07:11.006Z,5.14
2017-01-30T06:08:10.589Z,5.14
2017-01-30T06:09:10.999Z,5.11
2017-01-30T06:10:10.940Z,5.14
2017-01-30T06:11:10.512Z,5.02
2017-01-30T06:12:11.039Z,5.09
2017-01-30T06:13:10.855Z,5.19
2017-01-30T06:14:10.837Z,5.09
2017-01-30T06:15:10.811Z,5.09
2017-01-30T06:16:10.784Z,5.09
2017-01-30T06:17:10.765Z,5.26
2017-01-30T06:18:10.738Z,5.22
2017-01-30T06:19:10.713Z,5.19
2017-01-30T06:20:10.688Z,5.14
2017-01-30T06:21:10.258Z,5.22
2017-01-30T06:22:10.685Z,5.2
2017-01-30T06:23:10.612Z,5.17
2017-01-30T06:24:10.186Z,5.24
2017-01-30T06:25:10.563Z,5.2
2017-01-30T06:26:10.142Z,5.22
2017-01-30T06:27:10.518Z,5.2
2017-01-30T06:28:10.481Z,5.24
2017-01-30T06:29:10.451Z,5.19
2017-01-30T06:30:10.689Z,5.23
2017-01-30T06:31:10.007Z,5.26
2017-01-30T06:32:10.408Z,5.27
2017-01-30T06:33:10.358Z,5.3
2017-01-30T06:34:10.335Z,5.24
2017-01-30T06:35:10.310Z,5.26
2017-01-30T06:36:10.299Z,5.24
2017-01-30T06:37:10.262Z,5.22
2017-01-30T06:38:10.238Z,5.27
2017-01-30T06:39:10.211Z,5.17
2017-01-30T06:40:10.209Z,5.24
2017-01-30T06:41:10.152Z,5.3
2017-01-30T06:42:09.345Z,5.27
2017-01-30T06:43:09.702Z,5.2
2017-01-30T06:44:10.088Z,5.24
2017-01-30T06:45:09.704Z,5.22
2017-01-30T06:46:10.031Z,5.22
2017-01-30T06:47:09.609Z,5.15
2017-01-30T06:48:09.578Z,5.23
2017-01-30T06:49:10.003Z,5.19
2017-01-30T06:50:09.926Z,5.24
2017-01-30T06:51:09.915Z,5.24
2017-01-30T06:53:09.857Z,5.17
2017-01-30T06:54:09.844Z,5.24
2017-01-30T06:55:09.809Z,5.17
2017-01-30T06:56:09.835Z,5.22
2017-01-30T06:57:09.362Z,5.26
2017-01-30T06:58:09.330Z,5.19
2017-01-30T06:59:09.309Z,5.3
2017-01-30T07:00:09.678Z,5.24
2017-01-30T07:01:09.657Z,5.24
2017-01-30T07:02:09.638Z,5.24
2017-01-30T07:03:09.208Z,5.23
2017-01-30T07:04:09.576Z,5.17
2017-01-30T07:05:09.560Z,5.17
2017-01-30T07:06:09.553Z,5.22
2017-01-30T07:07:09.566Z,5.17
2017-01-30T07:08:09.477Z,5.24
2017-01-30T07:09:09.053Z,5.2
2017-01-30T07:10:09.446Z,5.26
2017-01-30T07:11:09.613Z,5.29
2017-01-30T07:12:09.282Z,5.23
2017-01-30T07:13:09.353Z,5.26
2017-01-30T07:14:09.341Z,5.24
2017-01-30T07:15:09.344Z,5.27
2017-01-30T07:16:08.883Z,5.26
2017-01-30T07:17:08.881Z,5.32
2017-01-30T07:18:09.224Z,5.29
2017-01-30T07:19:08.803Z,5.29
2017-01-30T07:20:09.185Z,5.29
2017-01-30T07:21:09.157Z,5.35
2017-01-30T07:22:09.129Z,5.22
2017-01-30T07:23:08.702Z,5.19
2017-01-30T07:24:09.081Z,5.26
2017-01-30T07:25:08.661Z,5.3
2017-01-30T07:26:08.229Z,5.26
2017-01-30T07:27:09.002Z,5.26
2017-01-30T07:28:08.981Z,5.29
2017-01-30T07:29:08.950Z,5.2
2017-01-30T07:30:08.930Z,5.23
2017-01-30T07:31:08.911Z,5.24
2017-01-30T07:32:08.880Z,5.24
2017-01-30T07:33:08.455Z,5.14
2017-01-30T07:34:08.432Z,5.15
2017-01-30T07:35:08.798Z,5.27
2017-01-30T07:36:08.377Z,5.2
2017-01-30T07:37:08.554Z,5.24
2017-01-30T07:38:08.331Z,5.22
2017-01-30T07:39:08.704Z,5.2
2017-01-30T07:40:08.690Z,5.29
2017-01-30T07:41:08.857Z,5.2
2017-01-30T07:42:08.626Z,5.27
2017-01-30T07:43:08.205Z,5.23
2017-01-30T07:44:08.173Z,5.22
2017-01-30T07:45:08.556Z,5.22
2017-01-30T07:46:08.526Z,5.22
2017-01-30T07:47:08.328Z,5.26
2017-01-30T07:48:08.087Z,5.24
2017-01-30T07:49:08.050Z,5.19
2017-01-30T07:50:08.674Z,5.15
2017-01-30T07:51:08.000Z,5.22
2017-01-30T07:52:07.996Z,5.11
2017-01-30T07:53:08.355Z,5.24
2017-01-30T07:54:08.620Z,5.24
2017-01-30T07:55:08.301Z,5.27
2017-01-30T07:56:08.273Z,5.24
2017-01-30T07:57:07.857Z,5.27
2017-01-30T07:58:08.527Z,5.23
2017-01-30T07:59:08.203Z,5.27
2017-01-30T08:00:08.376Z,5.12
2017-01-30T08:01:08.160Z,5.12
2017-01-30T08:02:08.142Z,5.24
2017-01-30T08:03:07.702Z,5.22
2017-01-30T08:04:08.084Z,5.27
2017-01-30T08:05:07.256Z,5.11
2017-01-30T08:06:08.030Z,5.15
2017-01-30T08:07:07.611Z,5.23
2017-01-30T08:08:07.975Z,5.24
2017-01-30T08:09:07.953Z,5.22
2017-01-30T08:10:08.231Z,5.23
2017-01-30T08:11:07.110Z,5.26
2017-01-30T08:12:07.869Z,5.24
2017-01-30T08:13:07.456Z,5.2
2017-01-30T08:14:07.823Z,5.23
2017-01-30T08:15:07.405Z,5.23
2017-01-30T08:16:07.778Z,5.23
2017-01-30T08:17:07.852Z,5.27
2017-01-30T08:18:07.344Z,5.2
2017-01-30T08:19:07.713Z,5.19
2017-01-30T08:20:07.680Z,5.32
2017-01-30T08:21:07.659Z,5.26
2017-01-30T08:22:07.680Z,5.32
2017-01-30T08:23:07.262Z,5.29
2017-01-30T08:24:07.173Z,5.32
2017-01-30T08:25:07.545Z,5.33
2017-01-30T08:26:07.576Z,5.33
2017-01-30T08:27:07.556Z,5.35
2017-01-30T08:28:06.684Z,5.27
2017-01-30T08:29:07.060Z,5.32
2017-01-30T08:30:07.421Z,5.47
2017-01-30T08:31:07.400Z,5.33
2017-01-30T08:32:06.580Z,5.38
2017-01-30T08:33:07.347Z,5.38
2017-01-30T08:34:07.371Z,5.37
2017-01-30T08:35:07.308Z,5.4
2017-01-30T08:36:06.873Z,5.47
2017-01-30T08:37:07.247Z,5.44
2017-01-30T08:38:07.253Z,5.41
2017-01-30T08:39:06.800Z,5.35
2017-01-30T08:40:06.783Z,5.4
2017-01-30T08:41:06.801Z,5.42
2017-01-30T08:42:07.122Z,5.41
2017-01-30T08:43:07.100Z,5.38
2017-01-30T08:44:07.119Z,5.32
2017-01-30T08:45:06.251Z,5.42
2017-01-30T08:46:07.026Z,5.33
2017-01-30T08:47:06.994Z,5.32
2017-01-30T08:48:06.971Z,5.38
2017-01-30T08:49:06.949Z,5.47
2017-01-30T08:50:06.922Z,5.47
2017-01-30T08:51:06.498Z,5.42
2017-01-30T08:52:06.873Z,5.4
2017-01-30T08:53:06.059Z,5.37
2017-01-30T08:54:06.824Z,5.38
2017-01-30T08:55:06.398Z,5.44
2017-01-30T08:56:06.770Z,5.4
2017-01-30T08:57:06.744Z,5.37
2017-01-30T08:58:06.323Z,5.4
2017-01-30T08:59:06.697Z,5.51
2017-01-30T09:00:06.963Z,5.44
2017-01-30T09:01:06.254Z,5.51
2017-01-30T09:02:06.268Z,5.49
2017-01-30T09:03:06.594Z,5.49
2017-01-30T09:04:06.567Z,5.51
2017-01-30T09:05:06.547Z,5.52
2017-01-30T09:06:06.170Z,5.52
2017-01-30T09:07:06.501Z,5.52
2017-01-30T09:08:06.469Z,5.55
2017-01-30T09:09:06.442Z,5.63
2017-01-30T09:10:06.421Z,5.65
2017-01-30T09:11:06.402Z,5.63
2017-01-30T09:12:06.375Z,5.62
2017-01-30T09:13:06.394Z,5.59
2017-01-30T09:14:06.326Z,5.66
2017-01-30T09:15:06.307Z,5.62
2017-01-30T09:16:05.869Z,5.7
2017-01-30T09:17:05.845Z,5.65
2017-01-30T09:18:06.248Z,5.75
2017-01-30T09:19:06.398Z,5.7
2017-01-30T09:20:06.179Z,5.67
2017-01-30T09:21:05.752Z,5.66
2017-01-30T09:22:06.375Z,5.67
2017-01-30T09:23:06.101Z,5.74
2017-01-30T09:24:06.076Z,5.78
2017-01-30T09:25:06.076Z,5.73
2017-01-30T09:26:05.227Z,5.75
2017-01-30T09:27:05.991Z,5.77
2017-01-30T09:28:05.574Z,5.8
2017-01-30T09:29:05.599Z,5.84
2017-01-30T09:30:05.536Z,5.77
2017-01-30T09:31:05.509Z,5.77
2017-01-30T09:32:05.854Z,5.9
2017-01-30T09:33:05.853Z,5.77
2017-01-30T09:34:05.814Z,5.78
2017-01-30T09:35:05.384Z,5.8
2017-01-30T09:36:05.357Z,5.84
2017-01-30T09:37:05.340Z,5.84
2017-01-30T09:38:05.706Z,5.81
2017-01-30T09:39:05.692Z,5.95
2017-01-30T09:40:05.674Z,5.9
2017-01-30T09:41:05.558Z,5.85
2017-01-30T09:42:05.077Z,5.96
2017-01-30T09:43:05.612Z,5.88
2017-01-30T09:44:05.584Z,5.87
2017-01-30T09:45:05.556Z,5.88
2017-01-30T09:46:05.535Z,5.87
2017-01-30T09:47:05.111Z,5.84
2017-01-30T09:48:05.482Z,5.9
2017-01-30T09:49:05.067Z,5.87
2017-01-30T09:50:05.437Z,5.87
2017-01-30T09:51:05.453Z,5.9
2017-01-30T09:52:05.389Z,5.88
2017-01-30T09:53:05.366Z,5.95
2017-01-30T09:54:05.335Z,5.92
2017-01-30T09:55:05.300Z,5.88
2017-01-30T09:56:05.264Z,5.92
2017-01-30T09:57:05.245Z,5.92
2017-01-30T09:58:05.223Z,5.98
2017-01-30T09:59:05.204Z,5.98
2017-01-30T10:00:05.236Z,5.96
2017-01-30T10:01:05.197Z,5.99
2017-01-30T10:02:04.320Z,5.98
2017-01-30T10:03:05.094Z,5.96
2017-01-30T10:04:05.316Z,5.98
2017-01-30T10:05:05.047Z,5.96
2017-01-30T10:06:05.030Z,5.99
2017-01-30T10:07:05.517Z,6.01
2017-01-30T10:08:04.976Z,5.96
2017-01-30T10:09:04.555Z,5.99
2017-01-30T10:10:04.916Z,6.11
2017-01-30T10:11:04.898Z,5.98
2017-01-30T10:12:04.871Z,6.06
2017-01-30T10:13:04.848Z,6.08
2017-01-30T10:14:04.429Z,6.08
2017-01-30T10:15:04.802Z,6.11
2017-01-30T10:16:04.382Z,6.06
2017-01-30T10:17:04.409Z,6.14
2017-01-30T10:18:04.722Z,6.11
2017-01-30T10:19:04.709Z,6.03
2017-01-30T10:20:04.678Z,6.19
2017-01-30T10:21:04.252Z,6.17
2017-01-30T10:22:05.236Z,6.21
2017-01-30T10:23:04.607Z,6.14
2017-01-30T10:24:04.585Z,6.13
2017-01-30T10:25:04.556Z,6.17
2017-01-30T10:26:04.182Z,6.24
2017-01-30T10:27:04.110Z,6.19
2017-01-30T10:28:04.486Z,6.06
2017-01-30T10:29:04.465Z,6.14
2017-01-30T10:30:04.436Z,6.17
2017-01-30T10:31:04.406Z,6.21
2017-01-30T10:32:04.399Z,6.2
2017-01-30T10:33:03.964Z,6.2
2017-01-30T10:34:04.383Z,6.24
2017-01-30T10:35:04.308Z,6.19
2017-01-30T10:36:03.497Z,6.16
2017-01-30T10:37:04.264Z,6.25
2017-01-30T10:38:04.238Z,6.2
2017-01-30T10:39:03.812Z,6.28
2017-01-30T10:40:03.796Z,6.28
2017-01-30T10:41:04.167Z,6.28
2017-01-30T10:42:04.141Z,6.28
2017-01-30T10:43:03.720Z,6.21
2017-01-30T10:44:04.096Z,6.24
2017-01-30T10:45:04.066Z,6.38
2017-01-30T10:46:03.650Z,6.32
2017-01-30T10:47:04.144Z,6.38
2017-01-30T10:48:04.042Z,6.38
2017-01-30T10:49:03.974Z,6.38
2017-01-30T10:50:03.955Z,6.4
2017-01-30T10:51:03.942Z,6.4
2017-01-30T10:52:03.504Z,6.48
2017-01-30T10:53:03.479Z,6.53
2017-01-30T10:54:03.855Z,6.54
2017-01-30T10:55:03.828Z,6.51
2017-01-30T10:56:03.456Z,6.45
2017-01-30T10:57:03.778Z,6.53
2017-01-30T10:58:03.859Z,6.53
2017-01-30T10:59:02.939Z,6.43
2017-01-30T11:00:03.703Z,6.48
2017-01-30T11:01:03.280Z,6.48
2017-01-30T11:02:03.654Z,6.46
2017-01-30T11:03:03.643Z,6.45
2017-01-30T11:04:03.622Z,6.46
2017-01-30T11:05:03.589Z,6.46
2017-01-30T11:06:03.164Z,6.57
2017-01-30T11:07:03.537Z,6.63
2017-01-30T11:08:03.524Z,6.64
2017-01-30T11:09:03.503Z,6.58
2017-01-30T11:10:03.067Z,6.54
2017-01-30T11:11:03.458Z,6.54
2017-01-30T11:12:03.030Z,6.6
2017-01-30T11:13:03.014Z,6.55
2017-01-30T11:14:03.390Z,6.64
2017-01-30T11:15:03.050Z,6.57
2017-01-30T11:16:03.348Z,6.68
2017-01-30T11:17:02.922Z,6.68
2017-01-30T11:18:03.299Z,6.65
2017-01-30T11:19:02.875Z,6.69
2017-01-30T11:20:02.848Z,6.68
2017-01-30T11:21:03.215Z,6.75
2017-01-30T11:22:02.803Z,6.69
2017-01-30T11:23:03.184Z,6.72
2017-01-30T11:24:03.149Z,6.71
2017-01-30T11:25:03.179Z,6.69
2017-01-30T11:26:03.100Z,6.68
2017-01-30T11:27:03.089Z,6.69
2017-01-30T11:28:02.652Z,6.64
2017-01-30T11:29:03.095Z,6.71
2017-01-30T11:30:02.609Z,6.71
2017-01-30T11:31:02.981Z,6.65
2017-01-30T11:32:02.964Z,6.69
2017-01-30T11:33:02.928Z,6.65
2017-01-30T11:34:02.902Z,6.71
2017-01-30T11:35:02.887Z,6.65
2017-01-30T11:36:02.862Z,6.69
2017-01-30T11:37:02.891Z,6.71
2017-01-30T11:38:02.411Z,6.69
2017-01-30T11:39:02.803Z,6.73
2017-01-30T11:40:02.774Z,6.73
2017-01-30T11:41:02.348Z,6.61
2017-01-30T11:42:02.773Z,6.76
2017-01-30T11:43:02.693Z,6.78
2017-01-30T11:44:02.668Z,6.76
2017-01-30T11:45:02.947Z,6.78
2017-01-30T11:46:02.224Z,6.75
2017-01-30T11:47:02.603Z,6.76
2017-01-30T11:48:02.171Z,6.75
2017-01-30T11:49:01.751Z,6.76
2017-01-30T11:50:02.581Z,6.91
2017-01-30T11:51:02.510Z,6.75
2017-01-30T11:52:02.125Z,6.9
2017-01-30T11:53:16.939Z,6.87
2017-01-30T11:54:02.431Z,6.87
2017-01-30T11:55:02.004Z,6.93
2017-01-30T11:56:02.385Z,6.89
2017-01-30T11:57:01.961Z,6.86
2017-01-30T11:58:02.382Z,6.93
2017-01-30T11:59:02.310Z,6.9
2017-01-30T12:00:02.331Z,6.87
2017-01-30T12:01:01.859Z,7.04
2017-01-30T12:02:02.249Z,7
2017-01-30T12:03:02.216Z,7.05
2017-01-30T12:04:01.792Z,7.11
2017-01-30T12:05:02.186Z,7.08
2017-01-30T12:06:01.748Z,7.07
2017-01-30T12:07:02.122Z,7.09
2017-01-30T12:08:02.096Z,7.18
2017-01-30T12:09:02.076Z,7.11
2017-01-30T12:10:02.108Z,7.09
2017-01-30T12:11:02.025Z,7.15
2017-01-30T12:12:02.076Z,7.12
2017-01-30T12:13:01.578Z,7.15
2017-01-30T12:14:01.959Z,7.09
2017-01-30T12:15:01.530Z,7.15
2017-01-30T12:16:01.951Z,7.15
2017-01-30T12:17:01.890Z,7.12
2017-01-30T12:18:01.460Z,7.16
2017-01-30T12:19:01.839Z,7.18
2017-01-30T12:20:01.831Z,7.24
2017-01-30T12:21:01.785Z,7.19
2017-01-30T12:22:01.761Z,7.19
2017-01-30T12:23:01.742Z,7.15
2017-01-30T12:24:01.716Z,7.14
2017-01-30T12:25:01.692Z,7.19
2017-01-30T12:26:01.680Z,7.26
2017-01-30T12:27:01.253Z,7.18
2017-01-30T12:28:01.620Z,7.15
2017-01-30T12:29:01.605Z,7.19
2017-01-30T12:30:01.579Z,7.11
2017-01-30T12:31:01.559Z,7.15
2017-01-30T12:32:01.127Z,7.15
2017-01-30T12:33:01.098Z,7.19
2017-01-30T12:34:01.081Z,7.11
2017-01-30T12:35:01.462Z,7.12
2017-01-30T12:36:00.640Z,7.08
2017-01-30T12:37:01.441Z,7.11
2017-01-30T12:38:01.384Z,7.15
2017-01-30T12:39:00.562Z,7.09
2017-01-30T12:40:00.937Z,7.07
2017-01-30T12:41:01.319Z,7.07
2017-01-30T12:42:01.292Z,7.07
2017-01-30T12:43:00.870Z,7.07
2017-01-30T12:44:01.272Z,7.07
2017-01-30T12:45:01.251Z,7.19
2017-01-30T12:46:01.201Z,7.07
2017-01-30T12:47:01.181Z,7.21
2017-01-30T12:48:00.756Z,7.12
2017-01-30T12:49:01.126Z,7.11
2017-01-30T12:50:01.102Z,7.19
2017-01-30T12:51:01.081Z,7.19
2017-01-30T12:52:00.661Z,7.19
2017-01-30T12:53:01.047Z,7.14
2017-01-30T12:54:00.607Z,7.19
2017-01-30T12:55:00.595Z,7.14
2017-01-30T12:56:00.961Z,7.19
2017-01-30T12:57:00.939Z,7.11
2017-01-30T12:58:00.161Z,7.16
2017-01-30T12:59:01.218Z,7.16
2017-01-30T13:00:00.861Z,7.18
2017-01-30T13:01:00.852Z,7.19
2017-01-30T13:02:00.840Z,7.19
2017-01-30T13:03:00.399Z,7.21
2017-01-30T13:04:00.776Z,7.26
2017-01-30T13:05:00.743Z,7.3
2017-01-30T13:05:59.927Z,7.24
2017-01-30T13:07:00.305Z,7.32
2017-01-30T13:08:00.278Z,7.29
2017-01-30T13:08:59.853Z,7.29
2017-01-30T13:10:00.229Z,7.32
2017-01-30T13:11:00.222Z,7.29
2017-01-30T13:12:00.582Z,7.3
2017-01-30T13:13:00.560Z,7.32
2017-01-30T13:14:00.538Z,7.26
2017-01-30T13:15:00.567Z,7.3
2017-01-30T13:16:00.484Z,7.33
2017-01-30T13:17:00.068Z,7.26
2017-01-30T13:18:00.438Z,7.34
2017-01-30T13:19:00.413Z,7.32
2017-01-30T13:20:00.392Z,7.29
2017-01-30T13:21:00.363Z,7.24